createdAt,value
2024-02-05T00:02:26.347Z,15.00
2024-02-05T00:04:52.805Z,12.40
2024-02-05T00:07:20.946Z,11.00
2024-02-05T00:09:48.898Z,13.00
2024-02-05T00:12:16.167Z,12.20
2024-02-05T00:14:42.681Z,14.00
2024-02-05T00:17:10.360Z,12.00
2024-02-05T00:19:37.407Z,19.00
2024-02-05T00:22:04.000Z,9.00
2024-02-05T00:24:30.403Z,15.20
2024-02-05T00:26:56.874Z,11.40
2024-02-05T00:29:23.459Z,15.20
2024-02-05T00:31:50.404Z,12.60
2024-02-05T00:34:16.964Z,13.00
2024-02-05T00:36:43.706Z,15.00
2024-02-05T00:39:11.422Z,13.50
2024-02-05T00:41:38.043Z,16.50
2024-02-05T00:44:04.633Z,18.40
2024-02-05T00:46:31.071Z,18.00
2024-02-05T00:48:57.953Z,20.60
2024-02-05T00:51:24.584Z,12.80
2024-02-05T00:53:51.163Z,14.50
2024-02-05T00:56:18.647Z,14.80
2024-02-05T00:58:45.110Z,13.60
2024-02-05T01:01:11.977Z,15.00
2024-02-05T01:03:39.567Z,14.00
2024-02-05T01:06:08.162Z,12.00
2024-02-05T01:08:34.870Z,13.60
2024-02-05T01:11:01.323Z,12.25
2024-02-05T01:13:27.732Z,13.50
2024-02-05T01:15:54.363Z,14.50
2024-02-05T01:18:21.005Z,11.00
2024-02-05T01:20:48.796Z,14.00
2024-02-05T01:23:15.276Z,12.20
2024-02-05T01:25:42.100Z,14.20
2024-02-05T01:28:08.664Z,15.50
2024-02-05T01:30:35.161Z,14.50
2024-02-05T01:33:02.344Z,15.60
2024-02-05T01:35:28.793Z,11.40
2024-02-05T01:37:55.196Z,14.00
2024-02-05T01:40:21.792Z,14.50
2024-02-05T01:42:48.424Z,14.40
2024-02-05T01:45:14.927Z,15.40
2024-02-05T01:47:42.646Z,19.25
2024-02-05T01:50:11.499Z,22.75
2024-02-05T01:52:42.789Z,21.00
2024-02-05T01:55:10.205Z,23.25
2024-02-05T01:57:36.689Z,17.60
2024-02-05T02:00:04.856Z,19.40
2024-02-05T02:02:31.406Z,18.00
2024-02-05T02:04:59.276Z,16.50
2024-02-05T02:07:26.858Z,16.25
2024-02-05T02:09:53.966Z,15.00
2024-02-05T02:12:20.727Z,17.00
2024-02-05T02:14:47.138Z,16.00
2024-02-05T02:17:13.658Z,17.00
2024-02-05T02:19:47.330Z,17.80
2024-02-05T02:22:20.363Z,17.00
2024-02-05T02:24:47.019Z,17.40
2024-02-05T02:27:13.504Z,16.75
2024-02-05T02:29:40.044Z,15.25
2024-02-05T02:32:22.346Z,15.00
2024-02-05T02:34:49.685Z,16.20
2024-02-05T02:37:17.560Z,17.75
2024-02-05T02:40:06.719Z,13.20
2024-02-05T02:42:33.940Z,17.00
2024-02-05T02:45:04.370Z,18.50
2024-02-05T02:47:31.085Z,16.25
2024-02-05T02:49:57.580Z,17.00
2024-02-05T02:52:24.131Z,15.00
2024-02-05T02:54:50.623Z,19.40
2024-02-05T02:57:17.058Z,22.00
2024-02-05T02:59:43.527Z,19.40
2024-02-05T03:02:10.419Z,18.80
2024-02-05T03:04:37.096Z,17.25
2024-02-05T03:07:03.904Z,17.20
2024-02-05T03:09:30.891Z,16.75
2024-02-05T03:11:57.316Z,17.00
2024-02-05T03:14:26.866Z,16.00
2024-02-05T03:16:54.284Z,17.00
2024-02-05T03:19:20.754Z,19.00
2024-02-05T03:21:47.455Z,19.00
2024-02-05T03:24:13.906Z,16.60
2024-02-05T03:26:40.361Z,21.60
2024-02-05T03:29:06.855Z,19.25
2024-02-05T03:31:33.416Z,23.00
2024-02-05T03:34:00.010Z,17.75
2024-02-05T03:36:26.444Z,15.40
2024-02-05T03:38:54.719Z,22.60
2024-02-05T03:41:21.147Z,15.50
2024-02-05T03:43:49.548Z,18.75
2024-02-05T03:46:16.544Z,20.20
2024-02-05T03:48:56.022Z,17.00
2024-02-05T03:51:22.818Z,21.60
2024-02-05T03:53:49.635Z,24.60
2024-02-05T03:56:21.930Z,21.00
2024-02-05T03:58:51.714Z,24.00
2024-02-05T04:01:18.207Z,17.00
2024-02-05T04:03:45.049Z,21.00
2024-02-05T04:06:11.604Z,22.60
2024-02-05T04:08:38.058Z,19.25
2024-02-05T04:11:04.648Z,18.20
2024-02-05T04:13:31.090Z,19.00
2024-02-05T04:15:57.538Z,20.75
2024-02-05T04:18:24.208Z,22.00
2024-02-05T04:20:53.851Z,18.25
2024-02-05T04:23:20.806Z,18.75
2024-02-05T04:25:47.224Z,16.75
2024-02-05T04:28:13.756Z,15.80
2024-02-05T04:30:42.477Z,26.00
2024-02-05T04:33:09.403Z,21.00
2024-02-05T04:35:36.086Z,18.80
2024-02-05T04:38:02.621Z,23.00
2024-02-05T04:40:29.146Z,15.75
2024-02-05T04:42:55.700Z,20.33
2024-02-05T04:45:22.138Z,15.50
2024-02-05T04:47:48.647Z,21.25
2024-02-05T04:50:15.502Z,17.00
2024-02-05T04:52:42.371Z,13.00
2024-02-05T04:55:09.673Z,16.20
2024-02-05T04:57:36.208Z,18.00
2024-02-05T05:00:03.232Z,12.75
2024-02-05T05:02:29.691Z,15.40
2024-02-05T05:04:56.370Z,16.20
2024-02-05T05:07:24.409Z,15.00
2024-02-05T05:09:51.059Z,18.00
2024-02-05T05:12:19.472Z,13.00
2024-02-05T05:14:46.039Z,19.00
2024-02-05T05:17:12.465Z,14.20
2024-02-05T05:19:38.979Z,17.33
2024-02-05T05:22:05.523Z,17.75
2024-02-05T05:24:31.987Z,16.00
2024-02-05T05:26:59.896Z,19.50
2024-02-05T05:29:26.642Z,13.50
2024-02-05T05:31:53.197Z,14.00
2024-02-05T05:34:20.857Z,19.40
2024-02-05T05:36:47.397Z,18.50
2024-02-05T05:39:16.273Z,15.40
2024-02-05T05:41:42.687Z,17.25
2024-02-05T05:44:09.660Z,15.00
2024-02-05T05:46:36.250Z,15.80
2024-02-05T05:49:02.921Z,17.50
2024-02-05T05:51:29.390Z,17.00
2024-02-05T05:53:55.827Z,14.25
2024-02-05T05:56:22.239Z,17.60
2024-02-05T05:58:53.640Z,17.60
2024-02-05T06:01:20.281Z,18.00
2024-02-05T06:03:46.765Z,16.00
2024-02-05T06:06:13.324Z,17.00
2024-02-05T06:08:39.778Z,17.75
2024-02-05T06:11:06.158Z,17.00
2024-02-05T06:13:32.795Z,16.40
2024-02-05T06:15:59.360Z,19.40
2024-02-05T06:18:25.824Z,17.00
2024-02-05T06:20:52.313Z,17.00
2024-02-05T06:23:18.712Z,16.33
2024-02-05T06:25:45.118Z,19.00
2024-02-05T06:28:14.331Z,27.40
2024-02-05T06:30:44.314Z,36.50
2024-02-05T06:33:10.953Z,21.00
2024-02-05T06:35:37.471Z,24.75
2024-02-05T06:38:03.963Z,18.40
2024-02-05T06:40:30.432Z,19.67
2024-02-05T06:42:56.956Z,23.00
2024-02-05T06:45:23.396Z,25.40
2024-02-05T06:47:49.979Z,19.50
2024-02-05T06:50:16.516Z,25.20
2024-02-05T06:52:43.052Z,26.00
2024-02-05T06:55:09.547Z,35.00
2024-02-05T06:57:37.973Z,27.00
2024-02-05T07:00:07.218Z,21.25
2024-02-05T07:02:33.938Z,18.00
2024-02-05T07:05:02.525Z,19.40
2024-02-05T07:07:29.613Z,23.75
2024-02-05T07:09:56.504Z,25.00
2024-02-05T07:12:23.163Z,23.25
2024-02-05T07:14:52.618Z,21.00
2024-02-05T07:17:19.096Z,18.40
2024-02-05T07:19:45.584Z,16.60
2024-02-05T07:22:13.754Z,17.00
2024-02-05T07:24:43.738Z,19.60
2024-02-05T07:27:10.548Z,16.50
2024-02-05T07:29:40.262Z,23.20
2024-02-05T07:32:06.743Z,20.60
2024-02-05T07:34:33.284Z,25.00
2024-02-05T07:36:59.791Z,27.60
2024-02-05T07:39:26.806Z,20.75
2024-02-05T07:41:53.964Z,22.00
2024-02-05T07:44:20.439Z,25.50
2024-02-05T07:46:46.848Z,21.00
2024-02-05T07:49:13.398Z,22.00
2024-02-05T07:51:47.122Z,27.00
2024-02-05T07:54:13.948Z,26.25
2024-02-05T07:56:41.674Z,27.40
2024-02-05T07:59:08.102Z,25.75
2024-02-05T08:01:34.619Z,17.80
2024-02-05T08:04:01.185Z,22.60
2024-02-05T08:06:29.958Z,27.50
2024-02-05T08:09:06.048Z,31.00
2024-02-05T08:11:32.452Z,24.00
2024-02-05T08:13:59.293Z,22.00
2024-02-05T08:16:25.834Z,22.50
2024-02-05T08:18:52.425Z,17.20
2024-02-05T08:21:19.073Z,20.00
2024-02-05T08:23:48.547Z,20.75
2024-02-05T08:26:15.641Z,24.80
2024-02-05T08:28:42.980Z,19.00
2024-02-05T08:31:09.517Z,14.00
2024-02-05T08:33:36.325Z,18.00
2024-02-05T08:36:03.197Z,32.80
2024-02-05T08:38:29.897Z,24.50
2024-02-05T08:40:57.695Z,33.00
2024-02-05T08:43:24.762Z,21.00
2024-02-05T08:45:54.034Z,17.50
2024-02-05T08:48:20.752Z,14.25
2024-02-05T08:50:47.610Z,18.00
2024-02-05T08:53:14.310Z,14.50
2024-02-05T08:55:40.784Z,15.00
2024-02-05T08:58:07.439Z,15.80
2024-02-05T09:00:33.922Z,18.80
2024-02-05T09:03:00.546Z,14.75
2024-02-05T09:05:33.808Z,23.00
2024-02-05T09:08:07.908Z,15.80
2024-02-05T09:10:36.778Z,13.80
2024-02-05T09:13:04.030Z,12.60
2024-02-05T09:15:30.718Z,17.50
2024-02-05T09:17:58.889Z,11.40
2024-02-05T09:20:25.444Z,13.00
2024-02-05T09:22:51.910Z,15.25
2024-02-05T09:25:18.435Z,12.20
2024-02-05T09:27:45.630Z,18.00
2024-02-05T09:30:12.513Z,14.00
2024-02-05T09:32:39.053Z,13.60
2024-02-05T09:35:05.771Z,16.00
2024-02-05T09:37:32.445Z,13.00
2024-02-05T09:39:59.111Z,14.00
2024-02-05T09:42:25.644Z,12.50
2024-02-05T09:44:52.057Z,13.00
2024-02-05T09:47:19.874Z,11.75
2024-02-05T09:49:49.710Z,12.00
2024-02-05T09:52:17.248Z,12.40
2024-02-05T09:54:44.611Z,14.00
2024-02-05T09:57:12.520Z,12.40
2024-02-05T09:59:41.680Z,11.00
2024-02-05T10:02:09.755Z,13.80
2024-02-05T10:04:48.517Z,10.50
2024-02-05T10:07:16.438Z,12.60
2024-02-05T10:09:43.679Z,15.75
2024-02-05T10:12:13.576Z,14.40
2024-02-05T10:14:43.697Z,15.75
2024-02-05T10:17:11.095Z,12.67
2024-02-05T10:19:39.539Z,15.20
2024-02-05T10:22:06.824Z,12.00
2024-02-05T10:24:35.373Z,12.00
2024-02-05T10:27:01.985Z,13.40
2024-02-05T10:29:28.528Z,13.50
2024-02-05T10:31:59.614Z,13.00
2024-02-05T10:34:26.503Z,13.00
2024-02-05T10:36:53.823Z,12.60
2024-02-05T10:39:23.483Z,14.20
2024-02-05T10:41:50.349Z,14.20
2024-02-05T10:44:25.382Z,15.75
2024-02-05T10:47:01.107Z,18.00
2024-02-05T10:49:27.632Z,16.60
2024-02-05T10:51:55.868Z,20.00
2024-02-05T10:54:23.271Z,13.50
2024-02-05T10:56:50.663Z,21.00
2024-02-05T10:59:17.072Z,17.00
2024-02-05T11:01:46.809Z,16.00
2024-02-05T11:04:17.437Z,18.00
2024-02-05T11:06:45.731Z,20.50
2024-02-05T11:09:12.620Z,17.60
2024-02-05T11:11:39.499Z,18.00
2024-02-05T11:14:09.428Z,21.00
2024-02-05T11:16:38.824Z,18.00
2024-02-05T11:19:06.326Z,19.00
2024-02-05T11:21:35.112Z,19.00
2024-02-05T11:24:01.943Z,17.00
2024-02-05T11:26:28.398Z,17.00
2024-02-05T11:28:56.118Z,17.00
2024-02-05T11:31:28.992Z,15.60
2024-02-05T11:34:00.789Z,14.20
2024-02-05T11:36:28.603Z,18.80
2024-02-05T11:39:02.599Z,15.25
2024-02-05T11:41:30.554Z,16.80
2024-02-05T11:44:07.031Z,12.00
2024-02-05T11:46:37.104Z,13.00
2024-02-05T11:49:04.052Z,9.80
2024-02-05T11:51:32.730Z,10.75
2024-02-05T11:53:59.805Z,14.50
2024-02-05T11:56:26.583Z,9.00
2024-02-05T11:58:53.178Z,9.00
2024-02-05T12:01:20.083Z,11.00
2024-02-05T12:03:50.221Z,10.33
2024-02-05T12:06:17.193Z,10.60
2024-02-05T12:08:44.159Z,9.00
2024-02-05T12:11:12.318Z,10.60
2024-02-05T12:13:40.156Z,8.00
2024-02-05T12:16:10.457Z,13.00
2024-02-05T12:18:37.026Z,9.50
2024-02-05T12:21:05.131Z,12.50
2024-02-05T12:23:31.570Z,7.75
2024-02-05T12:25:58.204Z,12.75
2024-02-05T12:28:25.032Z,10.40
2024-02-05T12:30:58.335Z,16.25
2024-02-05T12:33:27.396Z,7.40
2024-02-05T12:35:58.485Z,8.50
2024-02-05T12:38:27.008Z,10.40
2024-02-05T12:40:56.131Z,10.00
2024-02-05T12:43:25.547Z,9.00
2024-02-05T12:45:53.387Z,8.40
2024-02-05T12:48:23.925Z,8.25
2024-02-05T12:50:54.240Z,13.00
2024-02-05T12:53:21.411Z,7.20
2024-02-05T12:55:48.401Z,10.00
2024-02-05T12:58:14.959Z,11.80
2024-02-05T13:00:41.853Z,9.20
2024-02-05T13:03:09.578Z,9.00
2024-02-05T13:05:36.519Z,9.25
2024-02-05T13:08:03.485Z,9.00
2024-02-05T13:10:30.327Z,8.60
2024-02-05T13:12:57.114Z,9.50
2024-02-05T13:15:23.836Z,11.75
2024-02-05T13:17:50.788Z,10.40
2024-02-05T13:20:17.745Z,14.00
2024-02-05T13:22:44.226Z,10.60
2024-02-05T13:25:11.226Z,8.25
2024-02-05T13:27:37.696Z,9.80
2024-02-05T13:30:04.244Z,9.80
2024-02-05T13:32:30.730Z,9.00
2024-02-05T13:34:57.252Z,13.00
2024-02-05T13:37:23.774Z,12.00
2024-02-05T13:39:50.352Z,10.50
2024-02-05T13:42:16.821Z,12.00
2024-02-05T13:44:43.981Z,13.75
2024-02-05T13:47:10.449Z,12.75
2024-02-05T13:49:38.785Z,10.00
2024-02-05T13:52:05.448Z,9.25
2024-02-05T13:54:31.878Z,10.00
2024-02-05T13:56:58.948Z,11.25
2024-02-05T13:59:25.457Z,12.40
2024-02-05T14:01:55.113Z,11.50
2024-02-05T14:04:23.007Z,11.00
2024-02-05T14:06:49.864Z,13.50
2024-02-05T14:09:16.425Z,13.20
2024-02-05T14:11:42.852Z,11.00
2024-02-05T14:14:09.403Z,10.50
2024-02-05T14:16:35.882Z,12.00
2024-02-05T14:19:02.463Z,16.80
2024-02-05T14:21:28.930Z,15.33
2024-02-05T14:23:55.377Z,11.00
2024-02-05T14:26:21.804Z,11.40
2024-02-05T14:28:48.228Z,13.00
2024-02-05T14:31:14.663Z,10.75
2024-02-05T14:33:44.107Z,9.25
2024-02-05T14:36:13.420Z,7.20
2024-02-05T14:38:39.820Z,9.67
2024-02-05T14:41:06.267Z,7.80
2024-02-05T14:43:32.733Z,14.00
2024-02-05T14:46:00.553Z,9.00
2024-02-05T14:48:28.053Z,14.00
2024-02-05T14:50:56.098Z,12.00
2024-02-05T14:53:22.666Z,13.00
2024-02-05T14:55:49.083Z,15.00
2024-02-05T14:58:16.655Z,19.00
2024-02-05T15:00:43.163Z,16.00
2024-02-05T15:03:09.596Z,21.00
2024-02-05T15:05:36.864Z,19.20
2024-02-05T15:08:05.588Z,25.40
2024-02-05T15:10:32.263Z,17.25
2024-02-05T15:12:58.768Z,19.50
2024-02-05T15:15:27.334Z,13.75
2024-02-05T15:17:56.904Z,11.75
2024-02-05T15:20:23.434Z,9.60
2024-02-05T15:22:50.060Z,12.60
2024-02-05T15:25:16.682Z,9.00
2024-02-05T15:27:46.482Z,10.00
2024-02-05T15:30:13.350Z,13.25
2024-02-05T15:32:39.897Z,12.00
2024-02-05T15:35:11.239Z,16.00
2024-02-05T15:37:38.461Z,9.60
2024-02-05T15:40:06.025Z,8.00
2024-02-05T15:42:33.965Z,14.00
2024-02-05T15:45:00.432Z,11.60
2024-02-05T15:47:26.896Z,10.80
2024-02-05T15:49:53.464Z,11.80
2024-02-05T15:52:20.031Z,10.25
2024-02-05T15:54:46.616Z,17.75
2024-02-05T15:57:13.094Z,12.50
2024-02-05T15:59:39.553Z,10.75
2024-02-05T16:02:06.448Z,8.80
2024-02-05T16:04:33.016Z,14.25
2024-02-05T16:06:59.768Z,18.25
2024-02-05T16:09:26.312Z,15.00
2024-02-05T16:11:52.733Z,13.40
2024-02-05T16:14:19.126Z,19.00
2024-02-05T16:16:45.848Z,20.40
2024-02-05T16:19:18.231Z,23.00
2024-02-05T16:21:47.846Z,28.60
2024-02-05T16:24:14.354Z,19.25
2024-02-05T16:26:40.773Z,22.80
2024-02-05T16:29:07.467Z,25.75
2024-02-05T16:31:33.965Z,22.20
2024-02-05T16:34:01.067Z,23.20
2024-02-05T16:36:28.609Z,24.00
2024-02-05T16:38:55.239Z,27.25
2024-02-05T16:41:21.849Z,28.60
2024-02-05T16:43:48.699Z,29.50
2024-02-05T16:46:15.248Z,23.00
2024-02-05T16:48:42.476Z,26.25
2024-02-05T16:51:10.080Z,27.00
2024-02-05T16:53:37.904Z,22.00
2024-02-05T16:56:04.638Z,29.40
2024-02-05T16:58:31.422Z,31.20
2024-02-05T17:00:59.511Z,28.80
2024-02-05T17:03:27.166Z,30.00
2024-02-05T17:05:53.704Z,30.20
2024-02-05T17:08:20.181Z,29.40
2024-02-05T17:10:46.904Z,29.00
2024-02-05T17:13:13.493Z,24.50
2024-02-05T17:15:41.617Z,20.00
2024-02-05T17:18:09.553Z,25.00
2024-02-05T17:20:36.534Z,21.80
2024-02-05T17:23:03.585Z,25.00
2024-02-05T17:25:30.172Z,20.50
2024-02-05T17:27:56.762Z,21.40
2024-02-05T17:30:24.282Z,21.00
2024-02-05T17:32:51.354Z,22.75
2024-02-05T17:35:18.718Z,20.00
2024-02-05T17:37:45.316Z,18.00
2024-02-05T17:40:12.015Z,32.00
2024-02-05T17:42:38.468Z,26.00
2024-02-05T17:45:06.768Z,32.00
2024-02-05T17:47:33.251Z,38.00
2024-02-05T17:49:59.816Z,35.75
2024-02-05T17:52:28.551Z,38.25
2024-02-05T17:54:55.069Z,35.40
2024-02-05T17:57:21.546Z,32.50
2024-02-05T17:59:47.964Z,35.00
2024-02-05T18:02:16.338Z,37.60
2024-02-05T18:04:43.040Z,35.25
2024-02-05T18:09:54.981Z,38.67
2024-02-05T18:12:21.662Z,36.00
2024-02-05T18:14:48.057Z,39.00
2024-02-05T18:17:14.454Z,39.80
2024-02-05T18:19:41.029Z,43.25
2024-02-05T18:22:07.568Z,42.00
2024-02-05T18:24:42.024Z,46.00
2024-02-05T18:27:15.866Z,49.25
2024-02-05T18:29:42.266Z,47.80
2024-02-05T18:32:08.731Z,48.00
2024-02-05T18:34:35.308Z,42.25
2024-02-05T18:37:01.969Z,45.20
2024-02-05T18:39:30.947Z,44.00
2024-02-05T18:41:57.351Z,44.00
2024-02-05T18:44:23.788Z,45.40
2024-02-05T18:46:50.498Z,48.50
2024-02-05T18:49:18.196Z,45.00
2024-02-05T18:51:44.915Z,43.20
2024-02-05T18:54:11.363Z,43.00
2024-02-05T18:56:39.282Z,42.60
2024-02-05T18:59:05.701Z,40.40
2024-02-05T19:01:32.237Z,40.00
2024-02-05T19:03:58.830Z,39.60
2024-02-05T19:06:29.515Z,46.00
2024-02-05T19:08:56.357Z,48.00
2024-02-05T19:11:22.757Z,48.50
2024-02-05T19:13:49.307Z,50.50
2024-02-05T19:16:16.667Z,48.00
2024-02-05T19:18:45.391Z,43.40
2024-02-05T19:21:11.872Z,44.00
2024-02-05T19:23:38.348Z,41.75
2024-02-05T19:26:05.052Z,41.00
2024-02-05T19:28:31.763Z,43.20
2024-02-05T19:30:59.091Z,44.00
2024-02-05T19:33:27.267Z,42.00
2024-02-05T19:35:53.735Z,43.75
2024-02-05T19:38:20.169Z,48.00
2024-02-05T19:40:46.831Z,49.00
2024-02-05T19:43:13.359Z,48.50
2024-02-05T19:45:39.937Z,48.00
2024-02-05T19:48:07.488Z,48.25
2024-02-05T19:50:35.881Z,45.00
2024-02-05T19:53:02.582Z,50.00
2024-02-05T19:55:31.850Z,50.00
2024-02-05T19:57:58.357Z,50.75
2024-02-05T20:00:24.819Z,50.75
2024-02-05T20:02:51.414Z,48.60
2024-02-05T20:05:18.311Z,52.00
2024-02-05T20:07:44.952Z,49.40
2024-02-05T20:10:11.637Z,51.00
2024-02-05T20:12:38.418Z,49.80
2024-02-05T20:15:06.689Z,49.25
2024-02-05T20:17:33.189Z,50.00
2024-02-05T20:19:59.694Z,50.80
2024-02-05T20:22:26.172Z,47.60
2024-02-05T20:24:52.694Z,49.00
2024-02-05T20:27:19.093Z,48.00
2024-02-05T20:29:45.533Z,50.00
2024-02-05T20:32:12.341Z,51.75
2024-02-05T20:34:38.865Z,50.00
2024-02-05T20:37:05.558Z,52.25
2024-02-05T20:39:32.070Z,54.00
2024-02-05T20:41:58.600Z,65.40
2024-02-05T20:44:26.974Z,60.60
2024-02-05T20:46:53.875Z,56.00
2024-02-05T20:49:20.426Z,65.25
2024-02-05T20:51:47.736Z,52.60
2024-02-05T20:54:14.264Z,54.67
2024-02-05T20:56:40.683Z,61.75
2024-02-05T20:59:07.899Z,55.50
2024-02-05T21:01:38.555Z,62.25
2024-02-05T21:04:06.636Z,57.60
2024-02-05T21:06:33.310Z,56.00
2024-02-05T21:08:59.730Z,57.00
2024-02-05T21:11:28.514Z,57.75
2024-02-05T21:13:55.148Z,63.20
2024-02-05T21:16:21.878Z,62.60
2024-02-05T21:18:49.976Z,59.00
2024-02-05T21:21:17.010Z,53.00
2024-02-05T21:23:43.488Z,57.75
2024-02-05T21:26:10.574Z,59.00
2024-02-05T21:28:37.133Z,55.50
2024-02-05T21:31:03.788Z,51.40
2024-02-05T21:33:30.427Z,53.75
2024-02-05T21:35:56.942Z,55.50
2024-02-05T21:38:24.489Z,52.75
2024-02-05T21:40:51.024Z,53.20
2024-02-05T21:43:17.668Z,55.00
2024-02-05T21:45:44.233Z,53.00
2024-02-05T21:48:11.765Z,57.00
2024-02-05T21:50:38.576Z,52.25
2024-02-05T21:53:05.221Z,53.80
2024-02-05T21:55:34.306Z,61.67
2024-02-05T21:58:01.505Z,61.60
2024-02-05T22:00:28.036Z,58.00
2024-02-05T22:02:54.500Z,66.50
2024-02-05T22:05:21.558Z,65.00
2024-02-05T22:07:48.134Z,66.50
2024-02-05T22:10:14.722Z,68.00
2024-02-05T22:12:41.166Z,64.50
2024-02-05T22:15:07.773Z,66.50
2024-02-05T22:17:34.717Z,69.00
2024-02-05T22:20:01.518Z,63.40
2024-02-05T22:22:28.111Z,62.00
2024-02-05T22:24:54.608Z,64.25
2024-02-05T22:27:21.080Z,55.20
2024-02-05T22:29:47.477Z,57.50
2024-02-05T22:32:15.232Z,55.80
2024-02-05T22:34:41.834Z,55.40
2024-02-05T22:37:08.476Z,52.40
2024-02-05T22:39:35.013Z,56.50
2024-02-05T22:42:01.403Z,53.75
2024-02-05T22:44:31.284Z,58.25
2024-02-05T22:46:57.806Z,61.00
2024-02-05T22:49:25.138Z,67.00
2024-02-05T22:51:53.053Z,64.00
2024-02-05T22:54:22.703Z,70.60
2024-02-05T22:56:49.139Z,68.20
2024-02-05T22:59:15.642Z,66.00
2024-02-05T23:01:42.356Z,65.00
2024-02-05T23:04:09.035Z,65.60
2024-02-05T23:06:35.641Z,68.75
2024-02-05T23:09:02.118Z,61.50
2024-02-05T23:11:28.556Z,65.00
2024-02-05T23:13:55.176Z,57.50
2024-02-05T23:16:22.590Z,61.50
2024-02-05T23:18:49.246Z,64.00
2024-02-05T23:21:19.293Z,58.00
2024-02-05T23:23:47.611Z,53.50
2024-02-05T23:26:17.120Z,61.00
2024-02-05T23:28:43.926Z,61.50
2024-02-05T23:31:10.489Z,62.25
2024-02-05T23:33:37.195Z,63.00
2024-02-05T23:36:05.892Z,59.75
2024-02-05T23:38:32.301Z,64.75
2024-02-05T23:40:58.702Z,56.60
2024-02-05T23:43:25.256Z,70.20
2024-02-05T23:45:51.763Z,77.00
2024-02-05T23:48:18.457Z,75.25
2024-02-05T23:50:46.206Z,70.25
2024-02-05T23:53:13.508Z,61.40
2024-02-05T23:55:40.033Z,59.40
2024-02-05T23:58:06.499Z,62.25
